sensor_id;sensor_type;location;lat;lon;timestamp;temperature;humidity
79467;SHT30;68933;49.726;9.226;2024-02-26T00:01:01;7;66
79467;SHT30;68933;49.726;9.226;2024-02-26T00:03:14;7;66
79467;SHT30;68933;49.726;9.226;2024-02-26T00:05:27;7;66
79467;SHT30;68933;49.726;9.226;2024-02-26T00:07:40;7;66
79467;SHT30;68933;49.726;9.226;2024-02-26T00:09:53;7;66
79467;SHT30;68933;49.726;9.226;2024-02-26T00:12:06;7;66
79467;SHT30;68933;49.726;9.226;2024-02-26T00:14:19;7;66
79467;SHT30;68933;49.726;9.226;2024-02-26T00:16:32;7;66
79467;SHT30;68933;49.726;9.226;2024-02-26T00:18:45;7;66
79467;SHT30;68933;49.726;9.226;2024-02-26T00:20:58;7;66
79467;SHT30;68933;49.726;9.226;2024-02-26T00:23:11;7;66
79467;SHT30;68933;49.726;9.226;2024-02-26T00:33:10;7;66
79467;SHT30;68933;49.726;9.226;2024-02-26T00:35:23;7.1;66
79467;SHT30;68933;49.726;9.226;2024-02-26T00:37:36;7.1;66
79467;SHT30;68933;49.726;9.226;2024-02-26T00:39:49;7.1;66
79467;SHT30;68933;49.726;9.226;2024-02-26T00:42:02;7.1;66
79467;SHT30;68933;49.726;9.226;2024-02-26T00:44:15;7.1;66
79467;SHT30;68933;49.726;9.226;2024-02-26T00:46:28;7.1;66
79467;SHT30;68933;49.726;9.226;2024-02-26T00:48:41;7.1;66
79467;SHT30;68933;49.726;9.226;2024-02-26T00:50:54;7.1;66
79467;SHT30;68933;49.726;9.226;2024-02-26T00:53:07;7.1;66
79467;SHT30;68933;49.726;9.226;2024-02-26T00:55:20;7.1;66
79467;SHT30;68933;49.726;9.226;2024-02-26T00:57:33;7.1;65
79467;SHT30;68933;49.726;9.226;2024-02-26T00:59:46;7.1;65
79467;SHT30;68933;49.726;9.226;2024-02-26T01:01:59;7.2;65
79467;SHT30;68933;49.726;9.226;2024-02-26T01:04:12;7.2;65
79467;SHT30;68933;49.726;9.226;2024-02-26T01:06:25;7.2;65
79467;SHT30;68933;49.726;9.226;2024-02-26T01:08:38;7.2;65
79467;SHT30;68933;49.726;9.226;2024-02-26T01:10:51;7.2;65
79467;SHT30;68933;49.726;9.226;2024-02-26T01:13:04;7.2;65
79467;SHT30;68933;49.726;9.226;2024-02-26T01:15:17;7.3;65
79467;SHT30;68933;49.726;9.226;2024-02-26T01:17:30;7.3;65
79467;SHT30;68933;49.726;9.226;2024-02-26T01:19:43;7.3;65
79467;SHT30;68933;49.726;9.226;2024-02-26T01:21:56;7.3;65
79467;SHT30;68933;49.726;9.226;2024-02-26T01:24:09;7.3;65
79467;SHT30;68933;49.726;9.226;2024-02-26T01:26:22;7.3;65
79467;SHT30;68933;49.726;9.226;2024-02-26T01:28:35;7.3;65
79467;SHT30;68933;49.726;9.226;2024-02-26T01:30:48;7.3;65
79467;SHT30;68933;49.726;9.226;2024-02-26T01:33:01;7.3;65
79467;SHT30;68933;49.726;9.226;2024-02-26T01:35:14;7.3;65
79467;SHT30;68933;49.726;9.226;2024-02-26T01:37:27;7.4;65
79467;SHT30;68933;49.726;9.226;2024-02-26T01:39:40;7.4;65
79467;SHT30;68933;49.726;9.226;2024-02-26T01:41:53;7.3;65
79467;SHT30;68933;49.726;9.226;2024-02-26T01:44:06;7.3;65
79467;SHT30;68933;49.726;9.226;2024-02-26T01:46:19;7.3;65
79467;SHT30;68933;49.726;9.226;2024-02-26T01:48:32;7.3;65
79467;SHT30;68933;49.726;9.226;2024-02-26T01:50:45;7.3;65
79467;SHT30;68933;49.726;9.226;2024-02-26T01:52:58;7.3;65
79467;SHT30;68933;49.726;9.226;2024-02-26T01:55:11;7.3;65
79467;SHT30;68933;49.726;9.226;2024-02-26T01:57:24;7.3;65
79467;SHT30;68933;49.726;9.226;2024-02-26T01:59:37;7.3;65
79467;SHT30;68933;49.726;9.226;2024-02-26T02:01:54;7.3;65
79467;SHT30;68933;49.726;9.226;2024-02-26T02:04:03;7.3;65
79467;SHT30;68933;49.726;9.226;2024-02-26T02:06:16;7.3;65
79467;SHT30;68933;49.726;9.226;2024-02-26T02:08:29;7.3;65
79467;SHT30;68933;49.726;9.226;2024-02-26T02:10:42;7.3;65
79467;SHT30;68933;49.726;9.226;2024-02-26T02:12:55;7.3;65
79467;SHT30;68933;49.726;9.226;2024-02-26T02:15:08;7.3;65
79467;SHT30;68933;49.726;9.226;2024-02-26T02:17:21;7.3;65
79467;SHT30;68933;49.726;9.226;2024-02-26T02:19:34;7.3;65
79467;SHT30;68933;49.726;9.226;2024-02-26T02:21:47;7.3;65
79467;SHT30;68933;49.726;9.226;2024-02-26T02:24:00;7.4;65
79467;SHT30;68933;49.726;9.226;2024-02-26T02:26:13;7.4;65
79467;SHT30;68933;49.726;9.226;2024-02-26T02:28:26;7.3;65
79467;SHT30;68933;49.726;9.226;2024-02-26T02:30:39;7.3;65
79467;SHT30;68933;49.726;9.226;2024-02-26T02:32:52;7.3;65
79467;SHT30;68933;49.726;9.226;2024-02-26T02:35:05;7.3;65
79467;SHT30;68933;49.726;9.226;2024-02-26T02:37:18;7.3;65
79467;SHT30;68933;49.726;9.226;2024-02-26T02:39:31;7.3;65
79467;SHT30;68933;49.726;9.226;2024-02-26T02:41:44;7.3;65
79467;SHT30;68933;49.726;9.226;2024-02-26T02:43:57;7.2;66
79467;SHT30;68933;49.726;9.226;2024-02-26T02:46:10;7.2;66
79467;SHT30;68933;49.726;9.226;2024-02-26T02:48:23;7.2;66
79467;SHT30;68933;49.726;9.226;2024-02-26T02:50:36;7.3;65
79467;SHT30;68933;49.726;9.226;2024-02-26T02:52:49;7.3;65
79467;SHT30;68933;49.726;9.226;2024-02-26T02:55:02;7.3;65
79467;SHT30;68933;49.726;9.226;2024-02-26T02:57:15;7.3;65
79467;SHT30;68933;49.726;9.226;2024-02-26T02:59:28;7.3;65
79467;SHT30;68933;49.726;9.226;2024-02-26T03:01:41;7.3;65
79467;SHT30;68933;49.726;9.226;2024-02-26T03:03:54;7.3;65
79467;SHT30;68933;49.726;9.226;2024-02-26T03:06:07;7.3;65
79467;SHT30;68933;49.726;9.226;2024-02-26T03:08:20;7.3;65
79467;SHT30;68933;49.726;9.226;2024-02-26T03:10:33;7.3;65
79467;SHT30;68933;49.726;9.226;2024-02-26T03:12:46;7.3;65
79467;SHT30;68933;49.726;9.226;2024-02-26T03:14:59;7.3;65
79467;SHT30;68933;49.726;9.226;2024-02-26T03:17:13;7.3;65
79467;SHT30;68933;49.726;9.226;2024-02-26T03:19:25;7.3;65
79467;SHT30;68933;49.726;9.226;2024-02-26T03:21:38;7.3;65
79467;SHT30;68933;49.726;9.226;2024-02-26T03:23:51;7.3;65
79467;SHT30;68933;49.726;9.226;2024-02-26T03:26:04;7.3;65
79467;SHT30;68933;49.726;9.226;2024-02-26T03:28:17;7.3;65
79467;SHT30;68933;49.726;9.226;2024-02-26T03:30:30;7.3;65
79467;SHT30;68933;49.726;9.226;2024-02-26T03:32:43;7.3;65
79467;SHT30;68933;49.726;9.226;2024-02-26T03:34:56;7.3;65
79467;SHT30;68933;49.726;9.226;2024-02-26T03:37:09;7.3;65
79467;SHT30;68933;49.726;9.226;2024-02-26T03:39:22;7.3;65
79467;SHT30;68933;49.726;9.226;2024-02-26T03:41:35;7.3;65
79467;SHT30;68933;49.726;9.226;2024-02-26T03:43:48;7.3;65
79467;SHT30;68933;49.726;9.226;2024-02-26T03:46:01;7.3;65
79467;SHT30;68933;49.726;9.226;2024-02-26T03:48:14;7.3;65
79467;SHT30;68933;49.726;9.226;2024-02-26T03:50:27;7.3;65
79467;SHT30;68933;49.726;9.226;2024-02-26T03:52:40;7.3;65
79467;SHT30;68933;49.726;9.226;2024-02-26T03:54:53;7.2;65
79467;SHT30;68933;49.726;9.226;2024-02-26T03:57:06;7.2;65
79467;SHT30;68933;49.726;9.226;2024-02-26T03:59:19;7.2;65
79467;SHT30;68933;49.726;9.226;2024-02-26T04:01:32;7.2;65
79467;SHT30;68933;49.726;9.226;2024-02-26T04:03:45;7.2;65
79467;SHT30;68933;49.726;9.226;2024-02-26T04:05:58;7.2;65
79467;SHT30;68933;49.726;9.226;2024-02-26T04:08:11;7.2;65
79467;SHT30;68933;49.726;9.226;2024-02-26T04:10:24;7.3;65
79467;SHT30;68933;49.726;9.226;2024-02-26T04:12:38;7.3;65
79467;SHT30;68933;49.726;9.226;2024-02-26T04:14:50;7.3;65
79467;SHT30;68933;49.726;9.226;2024-02-26T04:17:03;7.3;65
79467;SHT30;68933;49.726;9.226;2024-02-26T04:19:16;7.3;65
79467;SHT30;68933;49.726;9.226;2024-02-26T04:21:29;7.3;65
79467;SHT30;68933;49.726;9.226;2024-02-26T04:23:42;7.3;65
79467;SHT30;68933;49.726;9.226;2024-02-26T04:25:55;7.3;65
79467;SHT30;68933;49.726;9.226;2024-02-26T04:28:08;7.3;65
79467;SHT30;68933;49.726;9.226;2024-02-26T04:30:21;7.2;66
79467;SHT30;68933;49.726;9.226;2024-02-26T04:32:34;7.2;66
79467;SHT30;68933;49.726;9.226;2024-02-26T04:34:47;7.3;66
79467;SHT30;68933;49.726;9.226;2024-02-26T04:37:00;7.3;66
79467;SHT30;68933;49.726;9.226;2024-02-26T04:39:13;7.3;65
79467;SHT30;68933;49.726;9.226;2024-02-26T04:41:26;7.3;65
79467;SHT30;68933;49.726;9.226;2024-02-26T04:43:39;7.3;65
79467;SHT30;68933;49.726;9.226;2024-02-26T04:45:52;7.3;66
79467;SHT30;68933;49.726;9.226;2024-02-26T04:48:05;7.3;66
79467;SHT30;68933;49.726;9.226;2024-02-26T04:50:18;7.3;65
79467;SHT30;68933;49.726;9.226;2024-02-26T04:52:31;7.3;65
79467;SHT30;68933;49.726;9.226;2024-02-26T04:54:44;7.3;65
79467;SHT30;68933;49.726;9.226;2024-02-26T04:56:57;7.3;66
79467;SHT30;68933;49.726;9.226;2024-02-26T04:59:10;7.3;66
79467;SHT30;68933;49.726;9.226;2024-02-26T05:01:23;7.3;65
79467;SHT30;68933;49.726;9.226;2024-02-26T05:03:36;7.3;65
79467;SHT30;68933;49.726;9.226;2024-02-26T05:05:49;7.3;65
79467;SHT30;68933;49.726;9.226;2024-02-26T05:08:02;7.3;65
79467;SHT30;68933;49.726;9.226;2024-02-26T05:10:15;7.3;65
79467;SHT30;68933;49.726;9.226;2024-02-26T05:12:28;7.3;66
79467;SHT30;68933;49.726;9.226;2024-02-26T05:14:41;7.3;66
79467;SHT30;68933;49.726;9.226;2024-02-26T05:16:54;7.3;66
79467;SHT30;68933;49.726;9.226;2024-02-26T05:19:07;7.3;66
79467;SHT30;68933;49.726;9.226;2024-02-26T05:21:20;7.3;66
79467;SHT30;68933;49.726;9.226;2024-02-26T05:23:33;7.3;66
79467;SHT30;68933;49.726;9.226;2024-02-26T05:25:46;7.3;66
79467;SHT30;68933;49.726;9.226;2024-02-26T05:27:59;7.3;66
79467;SHT30;68933;49.726;9.226;2024-02-26T05:30:12;7.3;66
79467;SHT30;68933;49.726;9.226;2024-02-26T05:32:25;7.3;66
79467;SHT30;68933;49.726;9.226;2024-02-26T05:34:38;7.3;66
79467;SHT30;68933;49.726;9.226;2024-02-26T05:36:51;7.3;66
79467;SHT30;68933;49.726;9.226;2024-02-26T05:39:04;7.3;66
79467;SHT30;68933;49.726;9.226;2024-02-26T05:41:17;7.3;66
79467;SHT30;68933;49.726;9.226;2024-02-26T05:43:30;7.3;66
79467;SHT30;68933;49.726;9.226;2024-02-26T05:45:43;7.3;66
79467;SHT30;68933;49.726;9.226;2024-02-26T05:47:56;7.3;66
79467;SHT30;68933;49.726;9.226;2024-02-26T05:50:09;7.2;66
79467;SHT30;68933;49.726;9.226;2024-02-26T05:52:22;7.2;66
79467;SHT30;68933;49.726;9.226;2024-02-26T05:54:35;7.2;66
79467;SHT30;68933;49.726;9.226;2024-02-26T05:56:48;7.2;66
79467;SHT30;68933;49.726;9.226;2024-02-26T05:59:01;7.2;67
79467;SHT30;68933;49.726;9.226;2024-02-26T06:01:15;7.2;67
79467;SHT30;68933;49.726;9.226;2024-02-26T06:03:27;7.2;67
79467;SHT30;68933;49.726;9.226;2024-02-26T06:05:40;7.2;67
79467;SHT30;68933;49.726;9.226;2024-02-26T06:07:53;7.2;67
79467;SHT30;68933;49.726;9.226;2024-02-26T06:10:06;7.2;67
79467;SHT30;68933;49.726;9.226;2024-02-26T06:12:19;7.2;67
79467;SHT30;68933;49.726;9.226;2024-02-26T06:14:32;7.1;67
79467;SHT30;68933;49.726;9.226;2024-02-26T06:16:45;7.1;67
79467;SHT30;68933;49.726;9.226;2024-02-26T06:18:58;7;67
79467;SHT30;68933;49.726;9.226;2024-02-26T06:21:11;7;67
79467;SHT30;68933;49.726;9.226;2024-02-26T06:23:24;7;67
79467;SHT30;68933;49.726;9.226;2024-02-26T06:25:37;7;67
79467;SHT30;68933;49.726;9.226;2024-02-26T06:27:50;7;67
79467;SHT30;68933;49.726;9.226;2024-02-26T06:30:03;6.9;69
79467;SHT30;68933;49.726;9.226;2024-02-26T06:32:16;6.9;69
79467;SHT30;68933;49.726;9.226;2024-02-26T06:34:29;6.9;69
79467;SHT30;68933;49.726;9.226;2024-02-26T06:36:42;6.9;69
79467;SHT30;68933;49.726;9.226;2024-02-26T06:38:55;6.9;69
79467;SHT30;68933;49.726;9.226;2024-02-26T06:41:08;6.9;69
79467;SHT30;68933;49.726;9.226;2024-02-26T06:43:21;6.9;69
79467;SHT30;68933;49.726;9.226;2024-02-26T06:45:34;6.9;69
79467;SHT30;68933;49.726;9.226;2024-02-26T06:47:47;6.9;69
79467;SHT30;68933;49.726;9.226;2024-02-26T06:50:00;6.9;70
79467;SHT30;68933;49.726;9.226;2024-02-26T06:52:13;6.9;70
79467;SHT30;68933;49.726;9.226;2024-02-26T06:54:26;6.9;70
79467;SHT30;68933;49.726;9.226;2024-02-26T06:56:39;6.9;70
79467;SHT30;68933;49.726;9.226;2024-02-26T06:58:52;7;70
79467;SHT30;68933;49.726;9.226;2024-02-26T07:01:05;7;70
79467;SHT30;68933;49.726;9.226;2024-02-26T07:03:18;7;70
79467;SHT30;68933;49.726;9.226;2024-02-26T07:05:31;7;70
79467;SHT30;68933;49.726;9.226;2024-02-26T07:07:44;7;70
79467;SHT30;68933;49.726;9.226;2024-02-26T07:09:57;7;70
79467;SHT30;68933;49.726;9.226;2024-02-26T07:12:10;7;70
79467;SHT30;68933;49.726;9.226;2024-02-26T07:14:23;7;70
79467;SHT30;68933;49.726;9.226;2024-02-26T07:16:36;7;70
79467;SHT30;68933;49.726;9.226;2024-02-26T07:18:49;7;70
79467;SHT30;68933;49.726;9.226;2024-02-26T07:21:02;7;70
79467;SHT30;68933;49.726;9.226;2024-02-26T07:23:15;7;70
79467;SHT30;68933;49.726;9.226;2024-02-26T07:25:28;7;70
79467;SHT30;68933;49.726;9.226;2024-02-26T07:27:41;7;70
79467;SHT30;68933;49.726;9.226;2024-02-26T07:29:54;7;70
79467;SHT30;68933;49.726;9.226;2024-02-26T07:32:07;7;70
79467;SHT30;68933;49.726;9.226;2024-02-26T07:34:20;7;70
79467;SHT30;68933;49.726;9.226;2024-02-26T07:36:33;7;70
79467;SHT30;68933;49.726;9.226;2024-02-26T07:38:46;7;71
79467;SHT30;68933;49.726;9.226;2024-02-26T07:40:59;7;71
79467;SHT30;68933;49.726;9.226;2024-02-26T07:43:12;7;71
79467;SHT30;68933;49.726;9.226;2024-02-26T07:45:25;7;71
79467;SHT30;68933;49.726;9.226;2024-02-26T07:47:38;7;71
79467;SHT30;68933;49.726;9.226;2024-02-26T07:49:51;6.9;71
79467;SHT30;68933;49.726;9.226;2024-02-26T07:52:04;6.9;71
79467;SHT30;68933;49.726;9.226;2024-02-26T07:54:17;6.9;73
79467;SHT30;68933;49.726;9.226;2024-02-26T07:56:30;6.9;73
79467;SHT30;68933;49.726;9.226;2024-02-26T07:58:43;6.9;73
79467;SHT30;68933;49.726;9.226;2024-02-26T08:00:56;7;73
79467;SHT30;68933;49.726;9.226;2024-02-26T08:03:09;7;73
79467;SHT30;68933;49.726;9.226;2024-02-26T08:05:22;7;73
79467;SHT30;68933;49.726;9.226;2024-02-26T08:07:35;7;73
79467;SHT30;68933;49.726;9.226;2024-02-26T08:09:48;7;73
79467;SHT30;68933;49.726;9.226;2024-02-26T08:12:01;7;74
79467;SHT30;68933;49.726;9.226;2024-02-26T08:14:14;7;74
79467;SHT30;68933;49.726;9.226;2024-02-26T08:16:27;7.1;74
79467;SHT30;68933;49.726;9.226;2024-02-26T08:18:40;7.1;74
79467;SHT30;68933;49.726;9.226;2024-02-26T08:20:53;7.1;74
79467;SHT30;68933;49.726;9.226;2024-02-26T08:23:06;7.1;74
79467;SHT30;68933;49.726;9.226;2024-02-26T08:25:19;7.1;73
79467;SHT30;68933;49.726;9.226;2024-02-26T08:27:32;7.1;73
79467;SHT30;68933;49.726;9.226;2024-02-26T08:29:45;7.1;73
79467;SHT30;68933;49.726;9.226;2024-02-26T08:31:58;7.2;74
79467;SHT30;68933;49.726;9.226;2024-02-26T08:34:11;7.2;74
79467;SHT30;68933;49.726;9.226;2024-02-26T08:36:24;7.2;74
79467;SHT30;68933;49.726;9.226;2024-02-26T08:38:37;7.2;74
79467;SHT30;68933;49.726;9.226;2024-02-26T08:40:50;7.2;74
79467;SHT30;68933;49.726;9.226;2024-02-26T08:43:03;7.2;74
79467;SHT30;68933;49.726;9.226;2024-02-26T08:45:16;7.2;74
79467;SHT30;68933;49.726;9.226;2024-02-26T08:47:29;7.2;74
79467;SHT30;68933;49.726;9.226;2024-02-26T08:49:42;7.2;74
79467;SHT30;68933;49.726;9.226;2024-02-26T08:51:55;7.2;74
79467;SHT30;68933;49.726;9.226;2024-02-26T08:54:08;7.2;74
79467;SHT30;68933;49.726;9.226;2024-02-26T08:56:21;7.2;74
79467;SHT30;68933;49.726;9.226;2024-02-26T08:58:34;7.3;74
79467;SHT30;68933;49.726;9.226;2024-02-26T09:00:47;7.3;74
79467;SHT30;68933;49.726;9.226;2024-02-26T09:03:00;7.4;73
79467;SHT30;68933;49.726;9.226;2024-02-26T09:05:13;7.4;73
79467;SHT30;68933;49.726;9.226;2024-02-26T09:07:26;7.4;73
79467;SHT30;68933;49.726;9.226;2024-02-26T09:09:39;7.4;73
79467;SHT30;68933;49.726;9.226;2024-02-26T09:11:52;7.4;73
79467;SHT30;68933;49.726;9.226;2024-02-26T09:14:05;7.6;74
79467;SHT30;68933;49.726;9.226;2024-02-26T09:16:18;7.6;74
79467;SHT30;68933;49.726;9.226;2024-02-26T09:18:31;7.7;74
79467;SHT30;68933;49.726;9.226;2024-02-26T09:20:44;7.7;74
79467;SHT30;68933;49.726;9.226;2024-02-26T09:22:57;7.8;74
79467;SHT30;68933;49.726;9.226;2024-02-26T09:25:10;7.8;74
79467;SHT30;68933;49.726;9.226;2024-02-26T09:27:23;7.8;74
79467;SHT30;68933;49.726;9.226;2024-02-26T09:29:36;7.9;73
79467;SHT30;68933;49.726;9.226;2024-02-26T09:31:49;7.9;73
79467;SHT30;68933;49.726;9.226;2024-02-26T09:34:02;8;73
79467;SHT30;68933;49.726;9.226;2024-02-26T09:36:15;8;73
79467;SHT30;68933;49.726;9.226;2024-02-26T09:38:28;8.1;73
79467;SHT30;68933;49.726;9.226;2024-02-26T09:40:41;8.1;73
79467;SHT30;68933;49.726;9.226;2024-02-26T09:42:56;8.2;71
79467;SHT30;68933;49.726;9.226;2024-02-26T09:45:07;8.2;71
79467;SHT30;68933;49.726;9.226;2024-02-26T09:47:20;8.2;71
79467;SHT30;68933;49.726;9.226;2024-02-26T09:49:33;8.3;71
79467;SHT30;68933;49.726;9.226;2024-02-26T09:51:46;8.3;71
79467;SHT30;68933;49.726;9.226;2024-02-26T09:53:59;8.3;71
79467;SHT30;68933;49.726;9.226;2024-02-26T09:56:12;8.3;71
79467;SHT30;68933;49.726;9.226;2024-02-26T09:58:25;8.4;71
79467;SHT30;68933;49.726;9.226;2024-02-26T10:00:38;8.4;71
79467;SHT30;68933;49.726;9.226;2024-02-26T10:02:51;8.4;71
79467;SHT30;68933;49.726;9.226;2024-02-26T10:05:04;8.4;71
79467;SHT30;68933;49.726;9.226;2024-02-26T10:07:17;8.4;71
79467;SHT30;68933;49.726;9.226;2024-02-26T10:09:30;8.4;71
79467;SHT30;68933;49.726;9.226;2024-02-26T10:11:43;8.4;71
79467;SHT30;68933;49.726;9.226;2024-02-26T10:13:56;8.4;70
79467;SHT30;68933;49.726;9.226;2024-02-26T10:16:09;8.4;70
79467;SHT30;68933;49.726;9.226;2024-02-26T10:18:22;8.5;71
79467;SHT30;68933;49.726;9.226;2024-02-26T10:20:35;8.5;71
79467;SHT30;68933;49.726;9.226;2024-02-26T10:22:48;8.6;71
79467;SHT30;68933;49.726;9.226;2024-02-26T10:25:01;8.6;71
79467;SHT30;68933;49.726;9.226;2024-02-26T10:27:14;8.7;70
79467;SHT30;68933;49.726;9.226;2024-02-26T10:29:27;8.7;70
79467;SHT30;68933;49.726;9.226;2024-02-26T10:31:41;8.7;70
79467;SHT30;68933;49.726;9.226;2024-02-26T10:33:54;8.7;70
79467;SHT30;68933;49.726;9.226;2024-02-26T10:36:06;8.9;71
79467;SHT30;68933;49.726;9.226;2024-02-26T10:38:19;8.9;71
79467;SHT30;68933;49.726;9.226;2024-02-26T10:40:32;8.9;71
79467;SHT30;68933;49.726;9.226;2024-02-26T10:42:45;9;70
79467;SHT30;68933;49.726;9.226;2024-02-26T10:44:58;9;70
79467;SHT30;68933;49.726;9.226;2024-02-26T10:47:11;9.3;70
79467;SHT30;68933;49.726;9.226;2024-02-26T10:49:24;9.3;70
79467;SHT30;68933;49.726;9.226;2024-02-26T10:51:37;9.3;70
79467;SHT30;68933;49.726;9.226;2024-02-26T10:53:50;9.5;68
79467;SHT30;68933;49.726;9.226;2024-02-26T10:56:03;9.5;68
79467;SHT30;68933;49.726;9.226;2024-02-26T10:58:16;9.8;68
79467;SHT30;68933;49.726;9.226;2024-02-26T11:00:29;9.8;68
79467;SHT30;68933;49.726;9.226;2024-02-26T11:02:42;9.8;68
79467;SHT30;68933;49.726;9.226;2024-02-26T11:04:55;10;67
79467;SHT30;68933;49.726;9.226;2024-02-26T11:07:09;10;67
79467;SHT30;68933;49.726;9.226;2024-02-26T11:09:21;10.1;67
79467;SHT30;68933;49.726;9.226;2024-02-26T11:11:34;10.1;67
79467;SHT30;68933;49.726;9.226;2024-02-26T11:13:47;10.3;67
79467;SHT30;68933;49.726;9.226;2024-02-26T11:16:00;10.3;67
79467;SHT30;68933;49.726;9.226;2024-02-26T11:18:13;10.5;67
79467;SHT30;68933;49.726;9.226;2024-02-26T11:20:26;10.5;67
79467;SHT30;68933;49.726;9.226;2024-02-26T11:22:39;10.8;66
79467;SHT30;68933;49.726;9.226;2024-02-26T11:24:52;10.8;66
79467;SHT30;68933;49.726;9.226;2024-02-26T11:27:05;10.8;66
79467;SHT30;68933;49.726;9.226;2024-02-26T11:29:20;10.9;66
79467;SHT30;68933;49.726;9.226;2024-02-26T11:31:31;10.9;66
79467;SHT30;68933;49.726;9.226;2024-02-26T11:33:44;10.9;64
79467;SHT30;68933;49.726;9.226;2024-02-26T11:35:57;10.9;64
79467;SHT30;68933;49.726;9.226;2024-02-26T11:38:12;11;64
79467;SHT30;68933;49.726;9.226;2024-02-26T11:40:23;11;64
79467;SHT30;68933;49.726;9.226;2024-02-26T11:42:36;11.3;64
79467;SHT30;68933;49.726;9.226;2024-02-26T11:44:49;11.3;64
79467;SHT30;68933;49.726;9.226;2024-02-26T11:47:09;11.3;64
79467;SHT30;68933;49.726;9.226;2024-02-26T11:49:30;11.6;64
79467;SHT30;68933;49.726;9.226;2024-02-26T11:51:32;11.6;64
79467;SHT30;68933;49.726;9.226;2024-02-26T11:53:45;12.4;64
79467;SHT30;68933;49.726;9.226;2024-02-26T11:56:25;12.4;64
79467;SHT30;68933;49.726;9.226;2024-02-26T11:58:07;12.8;63
79467;SHT30;68933;49.726;9.226;2024-02-26T12:00:20;12.8;63
79467;SHT30;68933;49.726;9.226;2024-02-26T12:02:41;13.1;60
79467;SHT30;68933;49.726;9.226;2024-02-26T12:04:46;13.1;60
79467;SHT30;68933;49.726;9.226;2024-02-26T12:07:00;13.7;60
79467;SHT30;68933;49.726;9.226;2024-02-26T12:09:12;13.7;60
79467;SHT30;68933;49.726;9.226;2024-02-26T12:11:27;14;60
79467;SHT30;68933;49.726;9.226;2024-02-26T12:13:38;14;60
79467;SHT30;68933;49.726;9.226;2024-02-26T12:15:54;14;60
79467;SHT30;68933;49.726;9.226;2024-02-26T12:18:05;14.3;57
79467;SHT30;68933;49.726;9.226;2024-02-26T12:20:17;14.3;57
79467;SHT30;68933;49.726;9.226;2024-02-26T12:22:30;14.6;56
79467;SHT30;68933;49.726;9.226;2024-02-26T12:24:43;14.6;56
79467;SHT30;68933;49.726;9.226;2024-02-26T12:26:56;14.6;56
79467;SHT30;68933;49.726;9.226;2024-02-26T12:29:09;14.7;56
79467;SHT30;68933;49.726;9.226;2024-02-26T12:31:22;14.7;56
79467;SHT30;68933;49.726;9.226;2024-02-26T12:33:35;14.7;55
79467;SHT30;68933;49.726;9.226;2024-02-26T12:35:48;14.7;55
79467;SHT30;68933;49.726;9.226;2024-02-26T12:38:01;14.7;55
79467;SHT30;68933;49.726;9.226;2024-02-26T12:40:14;14.7;55
79467;SHT30;68933;49.726;9.226;2024-02-26T12:42:27;14.7;55
79467;SHT30;68933;49.726;9.226;2024-02-26T12:44:40;14.5;55
79467;SHT30;68933;49.726;9.226;2024-02-26T12:46:59;14.5;55
79467;SHT30;68933;49.726;9.226;2024-02-26T12:49:06;14.3;55
79467;SHT30;68933;49.726;9.226;2024-02-26T12:51:19;14.3;55
79467;SHT30;68933;49.726;9.226;2024-02-26T12:53:32;14.3;55
79467;SHT30;68933;49.726;9.226;2024-02-26T12:55:45;14.2;55
79467;SHT30;68933;49.726;9.226;2024-02-26T12:57:58;14.2;55
79467;SHT30;68933;49.726;9.226;2024-02-26T13:00:12;14;55
79467;SHT30;68933;49.726;9.226;2024-02-26T13:02:24;14;55
79467;SHT30;68933;49.726;9.226;2024-02-26T13:04:38;13.9;56
79467;SHT30;68933;49.726;9.226;2024-02-26T13:06:50;13.9;56
79467;SHT30;68933;49.726;9.226;2024-02-26T13:09:03;13.9;56
79467;SHT30;68933;49.726;9.226;2024-02-26T13:11:16;13.9;56
79467;SHT30;68933;49.726;9.226;2024-02-26T13:13:29;13.9;56
79467;SHT30;68933;49.726;9.226;2024-02-26T13:15:42;13.9;56
79467;SHT30;68933;49.726;9.226;2024-02-26T13:17:55;13.9;56
79467;SHT30;68933;49.726;9.226;2024-02-26T13:20:08;13.6;56
79467;SHT30;68933;49.726;9.226;2024-02-26T13:22:21;13.6;56
79467;SHT30;68933;49.726;9.226;2024-02-26T13:24:34;13.6;56
79467;SHT30;68933;49.726;9.226;2024-02-26T13:26:47;13.6;56
79467;SHT30;68933;49.726;9.226;2024-02-26T13:29:00;13.6;56
79467;SHT30;68933;49.726;9.226;2024-02-26T13:31:13;13.6;56
79467;SHT30;68933;49.726;9.226;2024-02-26T13:33:26;13.6;56
79467;SHT30;68933;49.726;9.226;2024-02-26T13:35:39;13.6;56
79467;SHT30;68933;49.726;9.226;2024-02-26T13:37:52;13.6;56
79467;SHT30;68933;49.726;9.226;2024-02-26T13:40:05;13.6;56
79467;SHT30;68933;49.726;9.226;2024-02-26T13:42:18;13.6;56
79467;SHT30;68933;49.726;9.226;2024-02-26T13:44:31;13.6;56
79467;SHT30;68933;49.726;9.226;2024-02-26T13:46:44;13.6;56
79467;SHT30;68933;49.726;9.226;2024-02-26T13:48:57;13.6;56
79467;SHT30;68933;49.726;9.226;2024-02-26T13:51:10;13.6;56
79467;SHT30;68933;49.726;9.226;2024-02-26T13:53:23;13.6;56
79467;SHT30;68933;49.726;9.226;2024-02-26T13:55:36;13.6;56
79467;SHT30;68933;49.726;9.226;2024-02-26T13:57:49;13.6;56
79467;SHT30;68933;49.726;9.226;2024-02-26T14:00:02;13.6;56
79467;SHT30;68933;49.726;9.226;2024-02-26T14:02:15;13.8;56
79467;SHT30;68933;49.726;9.226;2024-02-26T14:04:28;13.8;56
79467;SHT30;68933;49.726;9.226;2024-02-26T14:06:41;13.8;56
79467;SHT30;68933;49.726;9.226;2024-02-26T14:08:54;13.8;56
79467;SHT30;68933;49.726;9.226;2024-02-26T14:11:07;13.8;56
79467;SHT30;68933;49.726;9.226;2024-02-26T14:13:20;13.8;56
79467;SHT30;68933;49.726;9.226;2024-02-26T14:15:33;13.8;56
79467;SHT30;68933;49.726;9.226;2024-02-26T14:17:46;13.8;56
79467;SHT30;68933;49.726;9.226;2024-02-26T14:19:59;13.8;56
79467;SHT30;68933;49.726;9.226;2024-02-26T14:22:12;13.7;56
79467;SHT30;68933;49.726;9.226;2024-02-26T14:24:25;13.7;56
79467;SHT30;68933;49.726;9.226;2024-02-26T14:26:38;13.7;56
79467;SHT30;68933;49.726;9.226;2024-02-26T14:28:51;13.7;56
79467;SHT30;68933;49.726;9.226;2024-02-26T14:31:05;13.7;56
79467;SHT30;68933;49.726;9.226;2024-02-26T14:33:17;13.7;56
79467;SHT30;68933;49.726;9.226;2024-02-26T14:35:30;13.7;56
79467;SHT30;68933;49.726;9.226;2024-02-26T14:37:43;13.7;56
79467;SHT30;68933;49.726;9.226;2024-02-26T14:39:56;13.6;56
79467;SHT30;68933;49.726;9.226;2024-02-26T14:42:09;13.6;56
79467;SHT30;68933;49.726;9.226;2024-02-26T14:44:22;13.6;56
79467;SHT30;68933;49.726;9.226;2024-02-26T14:46:35;13.6;56
79467;SHT30;68933;49.726;9.226;2024-02-26T14:48:48;13.6;56
79467;SHT30;68933;49.726;9.226;2024-02-26T14:51:01;13.6;56
79467;SHT30;68933;49.726;9.226;2024-02-26T14:53:14;13.6;56
79467;SHT30;68933;49.726;9.226;2024-02-26T14:55:27;13.5;56
79467;SHT30;68933;49.726;9.226;2024-02-26T14:57:40;13.5;56
79467;SHT30;68933;49.726;9.226;2024-02-26T14:59:53;13.4;56
79467;SHT30;68933;49.726;9.226;2024-02-26T15:02:06;13.4;56
79467;SHT30;68933;49.726;9.226;2024-02-26T15:04:19;13.3;56
79467;SHT30;68933;49.726;9.226;2024-02-26T15:06:32;13.3;56
79467;SHT30;68933;49.726;9.226;2024-02-26T15:08:45;13.3;56
79467;SHT30;68933;49.726;9.226;2024-02-26T15:10:58;13.2;56
79467;SHT30;68933;49.726;9.226;2024-02-26T15:13:11;13.2;56
79467;SHT30;68933;49.726;9.226;2024-02-26T15:15:24;13.1;56
79467;SHT30;68933;49.726;9.226;2024-02-26T15:17:37;13.1;56
79467;SHT30;68933;49.726;9.226;2024-02-26T15:19:50;13.1;56